Time;durP1;ratioP1;P1;durP2;ratioP2;P2;SDS_P1;SDS_P2;PMS_P1;PMS_P2;Temp;Humidity;BMP_temperature;BMP_pressure;BME280_temperature;BME280_humidity;BME280_pressure;Samples;Min_cycle;Max_cycle;Signal;HPM_P1;HPM_P2
2022/05/08 00:02:01;;;;;;;8.97;8.00;;;11.40;99.90;;;;;;5053377;28;20205;-58
2022/05/08 00:04:28;;;;;;;8.23;7.37;;;11.40;99.90;;;;;;5053158;28;20291;-58
2022/05/08 00:06:56;;;;;;;8.30;7.50;;;11.50;99.90;;;;;;5053140;28;20229;-59
2022/05/08 00:09:22;;;;;;;7.87;6.93;;;11.50;99.90;;;;;;5052812;28;20279;-58
2022/05/08 00:11:49;;;;;;;8.27;7.33;;;11.50;99.90;;;;;;5053082;28;20719;-59
2022/05/08 00:14:16;;;;;;;10.20;7.97;;;11.60;99.90;;;;;;5053056;28;20296;-58
2022/05/08 00:16:42;;;;;;;8.53;7.73;;;11.60;99.90;;;;;;5053067;28;20209;-59
2022/05/08 00:19:09;;;;;;;10.27;7.70;;;11.60;99.90;;;;;;5052787;28;20217;-58
2022/05/08 00:21:36;;;;;;;8.50;7.57;;;11.50;99.90;;;;;;5052847;28;20209;-58
2022/05/08 00:24:04;;;;;;;9.73;7.47;;;11.30;99.90;;;;;;5052869;28;20316;-58
2022/05/08 00:26:31;;;;;;;10.17;7.57;;;11.20;99.90;;;;;;5052839;28;20206;-59
2022/05/08 00:28:57;;;;;;;8.27;7.40;;;11.30;99.90;;;;;;5052837;28;20205;-58
2022/05/08 00:31:24;;;;;;;8.40;7.60;;;11.20;99.90;;;;;;5052752;28;20201;-58
2022/05/08 00:33:51;;;;;;;9.63;7.50;;;11.20;99.90;;;;;;5052595;28;20253;-59
2022/05/08 00:36:18;;;;;;;8.30;7.40;;;11.20;99.90;;;;;;5052573;28;20630;-59
2022/05/08 00:38:45;;;;;;;8.90;7.97;;;11.30;99.90;;;;;;5052594;28;20215;-58
2022/05/08 00:41:13;;;;;;;10.90;8.37;;;11.30;99.90;;;;;;5052487;28;20634;-59
2022/05/08 00:43:41;;;;;;;11.50;8.30;;;11.30;99.90;;;;;;5052457;28;20225;-58
2022/05/08 00:46:09;;;;;;;11.07;8.17;;;11.40;99.90;;;;;;5052604;28;20216;-58
2022/05/08 00:48:37;;;;;;;14.20;8.13;;;11.40;99.90;;;;;;5052066;28;20226;-59
2022/05/08 00:51:06;;;;;;;11.37;8.73;;;11.40;99.90;;;;;;5052308;28;20669;-59
2022/05/08 00:53:36;;;;;;;11.97;8.23;;;11.40;99.90;;;;;;5052285;28;20316;-59
2022/05/08 00:56:04;;;;;;;11.93;8.60;;;11.50;99.90;;;;;;5052374;28;20292;-58
2022/05/08 00:58:32;;;;;;;14.37;8.50;;;11.50;99.90;;;;;;5052168;28;20699;-59
2022/05/08 01:00:59;;;;;;;10.53;8.37;;;11.30;99.90;;;;;;5052109;28;20209;-58
2022/05/08 01:03:26;;;;;;;12.20;8.70;;;11.30;99.90;;;;;;5051914;28;20638;-59
2022/05/08 01:05:55;;;;;;;34.60;30.40;;;11.30;99.90;;;;;;5052332;28;20214;-58
2022/05/08 01:08:23;;;;;;;21.33;19.07;;;11.30;99.90;;;;;;5052146;28;20271;-59
2022/05/08 01:10:50;;;;;;;13.13;10.70;;;11.30;99.90;;;;;;5051876;28;20213;-59
2022/05/08 01:13:17;;;;;;;13.67;9.60;;;11.30;99.90;;;;;;5051671;28;20234;-58
2022/05/08 01:15:46;;;;;;;12.23;8.23;;;11.30;99.90;;;;;;5051639;28;20263;-59
2022/05/08 01:18:14;;;;;;;12.93;8.90;;;11.20;99.90;;;;;;5052372;28;20259;-58
2022/05/08 01:20:41;;;;;;;12.43;10.57;;;11.10;99.90;;;;;;5051902;28;20213;-58
2022/05/08 01:23:11;;;;;;;11.07;9.93;;;10.90;99.90;;;;;;5051759;28;20716;-58
2022/05/08 01:25:47;;;;;;;12.07;8.70;;;10.90;99.90;;;;;;5051896;28;20216;-58
2022/05/08 01:28:14;;;;;;;9.43;8.17;;;10.90;99.90;;;;;;5052180;28;20221;-58
2022/05/08 01:30:41;;;;;;;8.90;7.93;;;11.00;99.90;;;;;;5051748;28;20237;-58
2022/05/08 01:33:08;;;;;;;10.30;8.63;;;11.00;99.90;;;;;;5051862;28;20232;-58
2022/05/08 01:35:35;;;;;;;8.20;7.40;;;10.90;99.90;;;;;;5051861;28;20220;-58
2022/05/08 01:38:01;;;;;;;9.80;8.80;;;10.90;99.90;;;;;;5051750;28;20202;-58
2022/05/08 01:40:30;;;;;;;8.63;7.80;;;10.80;99.90;;;;;;5051541;28;20255;-58
2022/05/08 01:42:57;;;;;;;11.57;8.23;;;10.80;99.90;;;;;;5051456;28;20684;-58
2022/05/08 01:45:23;;;;;;;9.93;8.50;;;10.80;99.90;;;;;;5051761;28;20213;-59
2022/05/08 01:50:35;;;;;;;9.67;8.20;;;10.90;99.90;;;;;;5051496;28;20338;-59
2022/05/08 01:53:02;;;;;;;9.00;8.10;;;10.90;99.90;;;;;;5051609;28;20279;-58
2022/05/08 01:55:30;;;;;;;9.30;8.40;;;10.80;99.90;;;;;;5051494;28;20213;-58
2022/05/08 01:57:57;;;;;;;8.60;7.70;;;10.80;99.90;;;;;;5051644;28;20205;-59
2022/05/08 02:00:24;;;;;;;9.87;7.70;;;10.70;99.90;;;;;;5051476;28;20251;-58
2022/05/08 02:02:52;;;;;;;8.87;8.07;;;10.70;99.90;;;;;;5051484;28;20228;-59
2022/05/08 02:05:21;;;;;;;8.73;7.83;;;10.70;99.90;;;;;;5109561;22;20236;-59
2022/05/08 02:07:48;;;;;;;10.13;8.53;;;10.70;99.90;;;;;;5084715;28;20228;-59
2022/05/08 02:10:17;;;;;;;9.03;7.77;;;10.70;99.90;;;;;;5091782;28;20233;-59
2022/05/08 02:12:46;;;;;;;8.87;7.97;;;10.80;99.90;;;;;;5091846;28;20292;-59
2022/05/08 02:15:13;;;;;;;9.33;8.17;;;10.80;99.90;;;;;;5091610;28;20592;-59
2022/05/08 02:17:40;;;;;;;9.40;8.50;;;10.80;99.90;;;;;;5091594;28;20204;-59
2022/05/08 02:20:09;;;;;;;9.53;8.40;;;10.80;99.90;;;;;;5091476;28;20215;-59
2022/05/08 02:22:36;;;;;;;9.90;8.30;;;10.70;99.90;;;;;;5091622;28;20243;-59
2022/05/08 02:25:04;;;;;;;9.63;8.50;;;10.70;99.90;;;;;;5091605;28;20790;-59
2022/05/08 02:27:36;;;;;;;9.40;8.40;;;10.70;99.90;;;;;;5094849;28;20277;-59
2022/05/08 02:30:08;;;;;;;9.13;8.20;;;10.70;99.90;;;;;;5095323;28;20706;-59
2022/05/08 02:32:34;;;;;;;10.27;9.27;;;10.70;99.90;;;;;;5095570;28;20290;-59
2022/05/08 02:35:01;;;;;;;12.03;10.80;;;10.70;99.90;;;;;;5095207;28;20282;-57
2022/05/08 02:37:28;;;;;;;10.37;9.30;;;10.70;99.90;;;;;;5095327;28;20200;-57
2022/05/08 02:39:55;;;;;;;9.70;8.70;;;10.80;99.90;;;;;;5095153;28;20552;-57
2022/05/08 02:42:22;;;;;;;14.37;12.97;;;10.80;99.90;;;;;;5095210;28;20208;-58
2022/05/08 02:44:48;;;;;;;10.43;9.33;;;10.80;99.90;;;;;;5095095;28;20594;-58
2022/05/08 02:47:16;;;;;;;10.47;9.37;;;10.80;99.90;;;;;;5094945;28;20204;-58
2022/05/08 02:49:43;;;;;;;10.50;8.70;;;10.80;99.90;;;;;;5095150;28;20560;-58
2022/05/08 02:52:10;;;;;;;9.10;8.23;;;10.80;99.90;;;;;;5095384;28;20208;-58
2022/05/08 02:54:36;;;;;;;10.57;8.83;;;10.80;99.90;;;;;;5095254;28;20224;-57
2022/05/08 02:59:48;;;;;;;10.60;8.90;;;10.70;99.90;;;;;;5094717;28;20203;-57
2022/05/08 03:02:16;;;;;;;9.60;8.70;;;10.60;99.90;;;;;;5094749;28;20235;-57
2022/05/08 03:04:43;;;;;;;10.03;9.00;;;10.60;99.90;;;;;;5094424;28;20600;-57
2022/05/08 03:07:09;;;;;;;9.83;8.93;;;10.60;99.90;;;;;;5094629;28;20208;-57
2022/05/08 03:09:36;;;;;;;12.10;8.67;;;10.50;99.90;;;;;;5094358;28;20209;-57
2022/05/08 03:12:04;;;;;;;10.23;9.13;;;10.50;99.90;;;;;;5094618;28;20201;-57
2022/05/08 03:14:31;;;;;;;10.03;9.03;;;10.50;99.90;;;;;;5094451;28;20224;-57
2022/05/08 03:16:58;;;;;;;9.47;8.53;;;10.50;99.90;;;;;;5094588;28;20205;-58
2022/05/08 03:19:26;;;;;;;9.73;8.53;;;10.50;99.90;;;;;;5094317;28;20253;-58
2022/05/08 03:21:52;;;;;;;9.10;8.20;;;10.50;99.90;;;;;;5094468;28;20254;-58
2022/05/08 03:24:19;;;;;;;11.53;9.00;;;10.40;99.90;;;;;;5094209;28;20731;-57
2022/05/08 03:26:46;;;;;;;10.27;8.70;;;10.50;99.90;;;;;;5094271;28;20212;-58
2022/05/08 03:29:13;;;;;;;9.77;8.87;;;10.50;99.90;;;;;;5093944;28;20232;-58
2022/05/08 03:31:40;;;;;;;10.57;9.60;;;10.50;99.90;;;;;;5094341;28;20208;-58
2022/05/08 03:34:06;;;;;;;10.70;9.27;;;10.50;99.90;;;;;;5094249;28;20251;-58
2022/05/08 03:36:34;;;;;;;9.90;9.00;;;10.50;99.90;;;;;;5093726;28;20249;-58
2022/05/08 03:39:01;;;;;;;9.73;8.73;;;10.50;99.90;;;;;;5093913;28;20200;-58
2022/05/08 03:41:28;;;;;;;9.23;8.43;;;10.60;99.90;;;;;;5093996;28;20207;-58
2022/05/08 03:43:55;;;;;;;9.03;8.07;;;10.60;99.90;;;;;;5093661;28;20223;-59
2022/05/08 03:46:22;;;;;;;13.37;11.37;;;10.60;99.90;;;;;;5093793;28;20204;-58
2022/05/08 03:48:49;;;;;;;10.90;9.90;;;10.60;99.90;;;;;;5093571;28;20231;-58
2022/05/08 03:51:16;;;;;;;12.20;10.77;;;10.60;99.90;;;;;;5093912;28;20204;-58
2022/05/08 03:53:44;;;;;;;16.13;14.43;;;10.60;99.90;;;;;;5093670;28;20228;-58
2022/05/08 03:56:11;;;;;;;14.17;12.53;;;10.60;99.90;;;;;;5093598;28;20675;-59
2022/05/08 03:58:37;;;;;;;14.80;12.53;;;10.60;99.90;;;;;;5093933;28;20624;-59
2022/05/08 04:01:04;;;;;;;10.30;9.17;;;10.50;99.90;;;;;;5093541;28;20204;-59
2022/05/08 04:03:31;;;;;;;14.90;10.90;;;10.50;99.90;;;;;;5093547;28;20327;-58
2022/05/08 04:05:58;;;;;;;10.70;9.70;;;10.50;99.90;;;;;;5093601;28;20635;-60
2022/05/08 04:08:24;;;;;;;13.03;11.07;;;10.40;99.90;;;;;;5093459;28;20694;-59
2022/05/08 04:10:53;;;;;;;10.57;9.47;;;10.40;99.90;;;;;;5093115;28;20272;-59
2022/05/08 04:13:19;;;;;;;11.00;9.77;;;10.30;99.90;;;;;;5093715;28;20579;-59
2022/05/08 04:18:31;;;;;;;10.00;9.03;;;10.30;99.90;;;;;;5093690;28;20789;-62
2022/05/08 04:20:58;;;;;;;12.67;10.87;;;10.30;99.90;;;;;;5093397;28;20200;-59
2022/05/08 04:26:10;;;;;;;11.93;10.03;;;10.30;99.90;;;;;;5093400;28;20678;-58
2022/05/08 04:28:36;;;;;;;9.40;8.33;;;10.20;99.90;;;;;;5093057;28;20626;-59
2022/05/08 04:31:03;;;;;;;9.37;8.47;;;10.20;99.90;;;;;;5093035;28;20211;-60
2022/05/08 04:33:30;;;;;;;13.30;10.33;;;10.30;99.90;;;;;;5093064;28;20220;-59
2022/05/08 04:35:56;;;;;;;11.17;9.90;;;10.30;99.90;;;;;;5093004;28;20527;-59
2022/05/08 04:38:23;;;;;;;12.83;10.83;;;10.40;99.90;;;;;;5092964;28;20583;-58
2022/05/08 04:40:50;;;;;;;10.70;9.60;;;10.50;99.90;;;;;;5092860;28;20212;-59
2022/05/08 04:43:18;;;;;;;9.90;9.00;;;10.50;99.90;;;;;;5092792;28;20192;-59
2022/05/08 04:45:45;;;;;;;10.20;9.20;;;10.60;99.90;;;;;;5092778;28;20204;-59
2022/05/08 04:48:11;;;;;;;10.67;8.43;;;10.70;99.90;;;;;;5092079;28;20223;-59
2022/05/08 04:50:40;;;;;;;10.53;8.83;;;10.80;99.90;;;;;;5092305;28;20287;-59
2022/05/08 04:53:07;;;;;;;9.23;8.37;;;10.80;99.90;;;;;;5092716;28;20235;-59
2022/05/08 04:55:33;;;;;;;9.27;8.47;;;10.70;99.90;;;;;;5092870;28;20261;-59
2022/05/08 04:58:00;;;;;;;8.83;7.80;;;10.70;99.90;;;;;;5092395;28;20204;-60
2022/05/08 05:00:29;;;;;;;7.93;7.23;;;10.70;99.90;;;;;;5092353;28;20265;-60
2022/05/08 05:02:56;;;;;;;8.77;7.07;;;10.60;99.90;;;;;;5092311;28;20650;-59
2022/05/08 05:05:23;;;;;;;8.43;7.23;;;10.60;99.90;;;;;;5092237;28;20347;-59
2022/05/08 05:07:50;;;;;;;10.40;7.13;;;10.60;99.90;;;;;;5092246;28;20200;-59
2022/05/08 05:10:17;;;;;;;7.70;7.00;;;10.60;99.90;;;;;;5092219;28;20277;-60
2022/05/08 05:12:44;;;;;;;8.13;7.37;;;10.70;99.90;;;;;;5092160;28;20257;-59
2022/05/08 05:15:11;;;;;;;10.50;7.93;;;10.70;99.90;;;;;;5092181;28;20318;-58
2022/05/08 05:17:39;;;;;;;8.97;7.93;;;10.80;99.90;;;;;;5092339;28;20204;-58
2022/05/08 05:20:07;;;;;;;8.73;7.93;;;11.10;99.90;;;;;;5092186;28;20196;-59
2022/05/08 05:22:34;;;;;;;8.80;7.90;;;11.40;99.90;;;;;;5092186;28;20277;-58
2022/05/08 05:25:02;;;;;;;7.73;6.80;;;11.70;99.90;;;;;;5092128;28;20277;-59
2022/05/08 05:27:30;;;;;;;7.60;6.73;;;11.90;99.90;;;;;;5092050;28;20204;-58
2022/05/08 05:29:57;;;;;;;9.73;7.87;;;12.10;99.90;;;;;;5091670;28;20228;-59
2022/05/08 05:32:24;;;;;;;9.03;8.13;;;12.40;99.90;;;;;;5092271;28;20204;-58
2022/05/08 05:34:52;;;;;;;10.50;9.20;;;12.50;99.90;;;;;;5092462;28;20232;-58
2022/05/08 05:37:19;;;;;;;11.07;9.97;;;12.60;99.90;;;;;;5092204;28;20208;-60
2022/05/08 05:39:45;;;;;;;9.13;8.23;;;12.70;99.90;;;;;;5091843;28;20230;-59
2022/05/08 05:42:12;;;;;;;10.37;7.50;;;12.90;99.90;;;;;;5091961;28;20292;-59
2022/05/08 05:44:39;;;;;;;8.57;7.77;;;13.10;99.90;;;;;;5091789;28;20277;-58
2022/05/08 05:49:51;;;;;;;8.40;7.60;;;14.00;99.90;;;;;;5091725;28;20231;-59
2022/05/08 05:52:18;;;;;;;8.00;7.20;;;14.20;99.90;;;;;;5091924;28;20204;-59
2022/05/08 05:54:45;;;;;;;7.90;7.17;;;14.30;99.90;;;;;;5091650;28;20318;-58
2022/05/08 05:57:11;;;;;;;9.33;7.20;;;14.30;99.90;;;;;;5092016;28;20227;-59
2022/05/08 05:59:38;;;;;;;8.00;7.07;;;14.40;99.90;;;;;;5092090;28;20200;-58
2022/05/08 06:02:05;;;;;;;8.90;7.23;;;14.40;99.90;;;;;;5096092;28;20204;-58
2022/05/08 06:04:31;;;;;;;8.87;7.97;;;14.40;99.90;;;;;;5095744;28;20236;-58
2022/05/08 06:07:00;;;;;;;7.73;7.00;;;14.40;99.90;;;;;;5095816;28;20211;-59
2022/05/08 06:09:27;;;;;;;7.73;6.90;;;14.50;99.90;;;;;;5095428;28;20289;-59
2022/05/08 06:11:54;;;;;;;8.00;7.20;;;14.60;99.90;;;;;;5095832;28;20215;-58
2022/05/08 06:14:20;;;;;;;7.83;7.13;;;14.90;99.90;;;;;;5095789;28;20572;-58
2022/05/08 06:16:47;;;;;;;7.47;6.77;;;15.20;99.90;;;;;;5095854;28;20277;-59
2022/05/08 06:19:14;;;;;;;8.13;7.40;;;15.60;99.90;;;;;;5095472;28;20203;-58
2022/05/08 06:21:41;;;;;;;9.63;7.27;;;16.00;99.90;;;;;;5095571;28;20211;-58
2022/05/08 06:24:09;;;;;;;8.63;7.27;;;16.30;99.90;;;;;;5095364;28;20675;-60
2022/05/08 06:26:36;;;;;;;9.70;6.50;;;16.70;99.90;;;;;;5095690;28;20212;-60
2022/05/08 06:29:03;;;;;;;7.20;6.50;;;17.00;99.90;;;;;;5095347;28;20281;-59
2022/05/08 06:31:29;;;;;;;10.47;6.90;;;17.30;99.90;;;;;;5095341;28;20287;-60
2022/05/08 06:33:56;;;;;;;6.97;6.30;;;17.60;99.90;;;;;;5095234;28;20715;-59
2022/05/08 06:36:24;;;;;;;8.73;6.70;;;17.90;99.90;;;;;;5095087;28;20683;-59
2022/05/08 06:38:51;;;;;;;7.77;7.00;;;18.00;99.90;;;;;;5095260;28;20207;-59
2022/05/08 06:41:19;;;;;;;10.00;7.97;;;17.90;99.90;;;;;;5094988;28;20204;-58
2022/05/08 06:43:45;;;;;;;7.28;6.57;;;17.90;99.90;;;;;;5095443;28;20231;-60
2022/05/08 06:46:12;;;;;;;7.40;6.70;;;17.90;99.90;;;;;;5095193;28;20644;-59
2022/05/08 06:48:39;;;;;;;9.23;6.87;;;18.00;99.90;;;;;;5095153;28;20269;-60
2022/05/08 06:51:06;;;;;;;9.15;6.80;;;18.00;99.90;;;;;;5094611;28;20295;-60
2022/05/08 06:53:33;;;;;;;7.60;6.90;;;18.10;99.90;;;;;;5095060;28;20229;-60
2022/05/08 06:56:00;;;;;;;10.50;6.72;;;18.10;99.90;;;;;;5095084;28;20564;-60
2022/05/08 06:58:28;;;;;;;8.15;7.35;;;18.20;99.90;;;;;;5095120;28;20204;-59
2022/05/08 07:03:50;;;;;;;7.80;7.10;;;18.30;99.90;;;;;;5032222;28;20775;-60
2022/05/08 07:06:17;;;;;;;7.93;7.03;;;18.60;99.90;;;;;;5079313;28;20212;-58
2022/05/08 07:08:46;;;;;;;7.35;6.68;;;18.70;99.90;;;;;;5094905;28;20228;-59
2022/05/08 07:11:13;;;;;;;7.78;7.07;;;18.80;99.90;;;;;;5094088;28;20299;-58
2022/05/08 07:13:41;;;;;;;8.40;6.97;;;19.10;99.90;;;;;;5094263;28;20285;-57
2022/05/08 07:16:07;;;;;;;7.82;7.05;;;19.40;99.90;;;;;;5094576;28;20212;-60
2022/05/08 07:18:34;;;;;;;7.00;6.30;;;19.60;99.90;;;;;;5094732;28;20212;-58
2022/05/08 07:21:01;;;;;;;7.70;6.53;;;19.70;99.90;;;;;;5094035;28;20718;-60
2022/05/08 07:23:27;;;;;;;7.78;6.97;;;19.80;99.90;;;;;;5094261;28;20672;-59
2022/05/08 07:25:54;;;;;;;7.45;6.55;;;20.00;99.90;;;;;;5094209;28;20668;-58
2022/05/08 07:28:21;;;;;;;7.32;6.63;;;19.70;99.90;;;;;;5094206;28;20626;-58
2022/05/08 07:30:50;;;;;;;7.47;6.78;;;19.50;99.90;;;;;;5093797;28;20266;-58
2022/05/08 07:33:17;;;;;;;7.45;6.65;;;19.50;99.90;;;;;;5094190;28;20263;-58
2022/05/08 07:38:29;;;;;;;7.78;6.85;;;19.40;99.90;;;;;;5094399;28;20290;-59
2022/05/08 07:40:56;;;;;;;8.55;7.25;;;19.70;99.90;;;;;;5093740;28;20562;-58
2022/05/08 07:43:23;;;;;;;10.90;7.60;;;20.40;99.90;;;;;;5093782;28;20208;-58
2022/05/08 07:45:51;;;;;;;10.63;7.97;;;21.40;99.90;;;;;;5094290;28;20204;-59
2022/05/08 07:48:18;;;;;;;7.35;6.65;;;22.10;99.90;;;;;;5094119;28;20204;-58
2022/05/08 07:50:45;;;;;;;6.80;6.03;;;22.70;99.90;;;;;;5093620;28;20258;-58
2022/05/08 07:53:13;;;;;;;8.02;6.50;;;23.50;99.90;;;;;;5094052;28;20207;-58
2022/05/08 07:55:39;;;;;;;6.55;5.93;;;24.20;98.10;;;;;;5093879;28;20468;-58
2022/05/08 07:58:06;;;;;;;6.45;5.80;;;24.80;97.00;;;;;;5094024;28;20209;-58
2022/05/08 08:00:33;;;;;;;8.93;8.10;;;25.90;95.30;;;;;;5093778;28;20212;-58
2022/05/08 08:03:01;;;;;;;6.63;5.95;;;27.10;92.30;;;;;;5093919;28;20208;-58
2022/05/08 08:05:28;;;;;;;6.10;5.50;;;28.00;88.00;;;;;;5093927;28;20719;-60
2022/05/08 08:07:55;;;;;;;7.05;5.60;;;27.90;87.40;;;;;;5093566;28;20204;-59
2022/05/08 08:10:22;;;;;;;5.72;5.22;;;28.20;84.60;;;;;;5093300;28;20220;-61
2022/05/08 08:12:48;;;;;;;5.72;5.22;;;28.30;81.80;;;;;;5093674;28;20208;-56
2022/05/08 08:15:15;;;;;;;8.10;5.25;;;27.10;83.40;;;;;;5093293;28;20253;-57
2022/05/08 08:17:42;;;;;;;6.18;5.57;;;26.00;87.50;;;;;;5093193;28;20211;-58
2022/05/08 08:20:11;;;;;;;6.13;5.53;;;25.80;88.80;;;;;;5093153;28;20204;-58
2022/05/08 08:22:37;;;;;;;6.93;5.85;;;26.10;86.70;;;;;;5093343;28;20208;-60
2022/05/08 08:25:05;;;;;;;5.95;5.20;;;25.40;89.40;;;;;;5093330;28;20512;-58
2022/05/08 08:27:32;;;;;;;6.65;5.55;;;25.90;89.30;;;;;;5093494;28;20249;-58
2022/05/08 08:29:59;;;;;;;7.43;5.30;;;26.90;85.10;;;;;;5093239;28;20228;-58
2022/05/08 08:32:26;;;;;;;6.15;5.65;;;27.50;84.40;;;;;;5093531;28;20215;-58
2022/05/08 08:34:53;;;;;;;6.78;5.60;;;27.70;84.00;;;;;;5093112;28;20228;-59
2022/05/08 08:37:21;;;;;;;6.60;6.00;;;27.60;82.90;;;;;;5092925;28;20208;-59
2022/05/08 08:39:48;;;;;;;6.75;6.03;;;27.20;83.80;;;;;;5092625;28;20200;-59
2022/05/08 08:42:22;;;;;;;7.50;6.50;;;26.70;85.00;;;;;;5093188;28;20243;-59
2022/05/08 08:47:44;;;;;;;7.95;5.90;;;25.00;90.60;;;;;;5092909;28;20679;-59
2022/05/08 08:50:12;;;;;;;5.65;5.13;;;24.80;91.00;;;;;;5092793;28;20220;-57
2022/05/08 08:52:40;;;;;;;5.85;5.18;;;24.60;90.70;;;;;;5092775;28;20205;-58
2022/05/08 08:55:09;;;;;;;7.22;5.22;;;24.50;90.90;;;;;;5093060;28;20250;-58
2022/05/08 08:57:36;;;;;;;6.68;5.60;;;24.40;90.70;;;;;;5093556;28;20226;-59
2022/05/08 09:00:05;;;;;;;6.53;5.63;;;24.00;91.30;;;;;;5093314;28;20287;-56
2022/05/08 09:02:32;;;;;;;5.43;4.93;;;23.70;92.00;;;;;;5093397;28;20554;-58
2022/05/08 09:04:59;;;;;;;9.45;5.72;;;23.70;92.50;;;;;;5092725;28;20231;-59
2022/05/08 09:07:47;;;;;;;5.30;4.80;;;23.60;92.80;;;;;;5092746;28;20208;-57
2022/05/08 09:10:16;;;;;;;7.03;5.10;;;23.80;92.30;;;;;;5092375;28;20223;-58
2022/05/08 09:12:45;;;;;;;7.03;5.55;;;24.10;92.10;;;;;;5092977;28;20200;-57
2022/05/08 09:15:19;;;;;;;7.60;5.55;;;24.20;91.50;;;;;;5092947;28;20281;-57
2022/05/08 09:17:48;;;;;;;6.93;5.57;;;24.30;91.70;;;;;;5092459;28;20620;-58
2022/05/08 09:20:32;;;;;;;8.52;5.82;;;24.40;91.40;;;;;;5092257;28;20204;-57
2022/05/08 09:23:09;;;;;;;6.43;5.35;;;24.40;91.10;;;;;;5092630;28;20211;-58
2022/05/08 09:25:50;;;;;;;7.20;5.18;;;24.50;92.10;;;;;;5092679;28;20204;-58
2022/05/08 09:28:18;;;;;;;5.75;5.10;;;24.10;92.70;;;;;;5092967;28;20243;-58
2022/05/08 09:31:02;;;;;;;6.13;5.13;;;24.00;92.20;;;;;;5092630;28;20273;-58
2022/05/08 09:33:31;;;;;;;5.75;5.18;;;24.20;91.00;;;;;;5092308;28;20228;-58
2022/05/08 09:35:59;;;;;;;5.95;5.03;;;24.30;91.40;;;;;;5092054;28;20212;-58
2022/05/08 09:38:45;;;;;;;5.40;4.35;;;24.30;91.30;;;;;;5092681;28;20204;-59
2022/05/08 09:41:13;;;;;;;6.20;4.20;;;24.30;90.70;;;;;;5092381;28;20200;-57
2022/05/08 09:43:41;;;;;;;6.10;4.40;;;24.50;90.40;;;;;;5092605;28;20289;-58
2022/05/08 09:46:09;;;;;;;7.38;4.00;;;24.60;89.50;;;;;;5092467;28;20235;-58
2022/05/08 09:48:36;;;;;;;6.40;4.25;;;24.70;88.50;;;;;;5092649;28;20236;-57
2022/05/08 09:51:04;;;;;;;4.72;4.32;;;24.50;89.90;;;;;;5092014;28;20246;-57
2022/05/08 09:53:32;;;;;;;4.35;3.95;;;24.20;89.70;;;;;;5092286;28;20314;-58
2022/05/08 09:56:02;;;;;;;6.03;4.03;;;24.00;90.00;;;;;;5092023;28;20227;-58
2022/05/08 09:58:29;;;;;;;5.57;4.13;;;23.80;87.80;;;;;;5092162;28;20200;-58
2022/05/08 10:00:56;;;;;;;6.75;3.95;;;23.60;86.90;;;;;;5091614;28;20214;-57
2022/05/08 10:03:23;;;;;;;3.97;3.55;;;23.40;87.60;;;;;;5091996;28;20211;-57
2022/05/08 10:05:51;;;;;;;5.13;3.65;;;23.50;87.90;;;;;;5092439;28;20204;-58
2022/05/08 10:08:20;;;;;;;5.25;3.42;;;23.50;85.50;;;;;;5092002;28;20703;-57
2022/05/08 10:13:55;;;;;;;6.35;3.97;;;23.30;85.40;;;;;;5092101;28;20221;-57
2022/05/08 10:16:47;;;;;;;4.72;3.97;;;23.40;86.10;;;;;;5092124;28;20204;-59
2022/05/08 10:19:50;;;;;;;5.13;3.60;;;23.50;85.40;;;;;;5092207;28;20208;-58
2022/05/08 10:22:16;;;;;;;6.95;4.18;;;23.50;85.90;;;;;;5091706;28;20663;-57
2022/05/08 10:24:54;;;;;;;6.07;3.80;;;23.40;85.30;;;;;;5092020;28;20236;-57
2022/05/08 10:27:24;;;;;;;6.35;3.75;;;23.30;86.40;;;;;;5091820;28;20235;-57
2022/05/08 10:30:33;;;;;;;6.88;4.13;;;23.20;85.80;;;;;;5091276;28;20234;-58
2022/05/08 10:33:02;;;;;;;5.05;3.95;;;23.00;85.10;;;;;;5092103;28;20208;-57
2022/05/08 10:35:31;;;;;;;6.68;4.10;;;23.10;87.20;;;;;;5091710;28;20588;-57
2022/05/08 10:38:20;;;;;;;6.45;4.03;;;23.20;87.50;;;;;;5091719;28;20261;-57
2022/05/08 10:40:47;;;;;;;5.32;4.20;;;23.30;87.20;;;;;;5091539;28;20207;-58
2022/05/08 10:43:34;;;;;;;4.65;4.25;;;23.40;86.50;;;;;;5091898;28;20291;-56
2022/05/08 10:46:20;;;;;;;7.90;3.78;;;23.50;86.90;;;;;;5088235;28;20668;-58
2022/05/08 10:48:48;;;;;;;4.85;4.07;;;23.60;86.60;;;;;;5094978;28;20232;-57
2022/05/08 10:51:15;;;;;;;4.50;3.78;;;23.70;85.60;;;;;;5095139;28;20235;-57
2022/05/08 10:53:42;;;;;;;7.15;3.75;;;23.80;84.30;;;;;;5095294;28;20243;-58
2022/05/08 10:56:11;;;;;;;4.35;3.95;;;23.80;84.20;;;;;;5095304;28;20274;-57
2022/05/08 10:58:39;;;;;;;6.88;3.92;;;23.80;83.70;;;;;;5095313;28;20200;-58
2022/05/08 11:01:07;;;;;;;4.40;4.00;;;23.90;84.40;;;;;;5094986;28;20200;-57
2022/05/08 11:03:36;;;;;;;5.40;3.83;;;23.80;84.50;;;;;;5095161;28;20228;-57
2022/05/08 11:06:05;;;;;;;6.15;4.10;;;23.80;84.50;;;;;;5095005;28;20208;-57
2022/05/08 11:08:34;;;;;;;4.97;3.80;;;23.80;84.10;;;;;;5094696;28;20283;-56
2022/05/08 11:11:07;;;;;;;6.60;3.85;;;23.90;83.80;;;;;;5094915;28;20224;-57
2022/05/08 11:13:47;;;;;;;4.22;3.83;;;24.00;84.10;;;;;;5095072;28;20220;-58
2022/05/08 11:16:33;;;;;;;5.13;3.80;;;24.20;84.30;;;;;;5095156;28;20337;-57
2022/05/08 11:19:00;;;;;;;5.00;4.22;;;24.30;83.40;;;;;;5094705;28;20208;-57
2022/05/08 11:21:29;;;;;;;10.02;4.60;;;24.30;82.90;;;;;;5094605;28;20219;-57
2022/05/08 11:23:56;;;;;;;4.50;3.72;;;24.20;82.90;;;;;;5094742;28;20236;-57
2022/05/08 11:26:29;;;;;;;3.95;3.60;;;24.20;83.30;;;;;;5095056;28;20269;-58
2022/05/08 11:28:57;;;;;;;5.45;4.25;;;24.20;83.50;;;;;;5094487;28;20215;-57
2022/05/08 11:31:25;;;;;;;5.60;3.80;;;24.20;83.30;;;;;;5094040;28;20305;-57
2022/05/08 11:36:39;;;;;;;6.18;4.03;;;23.90;83.00;;;;;;5094001;28;20241;-58
2022/05/08 11:39:09;;;;;;;4.90;3.92;;;23.90;83.00;;;;;;5093868;28;20687;-58
2022/05/08 11:41:38;;;;;;;4.22;3.83;;;24.00;82.70;;;;;;5093711;28;20683;-58
2022/05/08 11:44:23;;;;;;;3.92;3.53;;;24.30;82.40;;;;;;5093826;28;20235;-57
2022/05/08 11:46:51;;;;;;;5.55;3.42;;;24.50;81.10;;;;;;5093636;28;20580;-60
2022/05/08 11:49:19;;;;;;;4.38;3.90;;;24.70;80.60;;;;;;5093952;28;20217;-57
2022/05/08 11:51:49;;;;;;;4.72;3.90;;;24.70;80.00;;;;;;5093660;28;20231;-57
2022/05/08 11:54:20;;;;;;;4.88;3.75;;;24.90;79.40;;;;;;5093741;28;20311;-57
2022/05/08 11:56:51;;;;;;;5.35;3.72;;;24.90;79.40;;;;;;5093728;28;20204;-58
2022/05/08 11:59:19;;;;;;;6.00;3.60;;;25.00;78.50;;;;;;5093317;28;20211;-57
2022/05/08 12:01:51;;;;;;;4.88;3.30;;;24.80;78.40;;;;;;5093485;28;20227;-57
2022/05/08 12:04:26;;;;;;;6.63;3.88;;;24.60;79.50;;;;;;5093557;28;20632;-56
2022/05/08 12:07:00;;;;;;;4.65;3.33;;;24.50;80.00;;;;;;5093304;28;20237;-57
2022/05/08 12:09:27;;;;;;;4.72;2.97;;;24.50;80.00;;;;;;5093310;28;20717;-57
2022/05/08 12:11:54;;;;;;;3.53;3.00;;;24.80;78.80;;;;;;5093011;28;20648;-57
2022/05/08 12:14:30;;;;;;;4.85;3.25;;;25.00;78.50;;;;;;5093288;28;20232;-57
2022/05/08 12:17:01;;;;;;;3.47;3.15;;;25.20;77.80;;;;;;5093283;28;20291;-58
2022/05/08 12:19:28;;;;;;;3.95;3.10;;;25.20;76.60;;;;;;5093142;28;20243;-57
2022/05/08 12:21:55;;;;;;;4.85;3.25;;;25.20;77.30;;;;;;5092905;28;20208;-57
2022/05/08 12:24:23;;;;;;;3.60;2.97;;;25.20;75.90;;;;;;5092839;28;20263;-57
2022/05/08 12:26:50;;;;;;;4.35;3.10;;;25.00;76.40;;;;;;5092839;28;20721;-57
2022/05/08 12:29:19;;;;;;;4.93;3.13;;;24.80;77.30;;;;;;5092743;28;20632;-57
2022/05/08 12:31:46;;;;;;;4.25;3.08;;;24.70;77.00;;;;;;5092822;28;20517;-58
2022/05/08 12:34:13;;;;;;;3.47;3.10;;;24.50;78.40;;;;;;5092982;28;20228;-57
2022/05/08 12:36:41;;;;;;;4.93;3.17;;;24.70;77.90;;;;;;5092930;28;20203;-57
2022/05/08 12:39:09;;;;;;;3.42;2.90;;;24.60;77.60;;;;;;5092662;28;20702;-58
2022/05/08 12:41:37;;;;;;;7.53;3.25;;;24.50;77.10;;;;;;5092808;28;20580;-57
2022/05/08 12:44:05;;;;;;;6.80;3.10;;;24.50;77.50;;;;;;5092693;28;20224;-57
2022/05/08 12:46:32;;;;;;;3.85;3.20;;;24.60;78.00;;;;;;5092852;28;20208;-57
2022/05/08 12:49:02;;;;;;;5.10;3.88;;;24.40;76.60;;;;;;5093091;28;20205;-58
2022/05/08 12:51:31;;;;;;;5.13;2.88;;;24.30;75.90;;;;;;5092563;28;20220;-59
2022/05/08 12:53:57;;;;;;;4.85;3.03;;;24.40;75.80;;;;;;5092890;28;20220;-58
2022/05/08 12:56:25;;;;;;;4.97;3.42;;;24.50;76.60;;;;;;5093515;28;20231;-58
2022/05/08 13:01:37;;;;;;;3.78;3.00;;;24.90;73.90;;;;;;5092376;28;20202;-59
2022/05/08 13:04:06;;;;;;;3.40;2.75;;;25.00;74.00;;;;;;5092332;28;20250;-58
2022/05/08 13:06:33;;;;;;;2.92;2.63;;;25.20;72.40;;;;;;5092387;28;20604;-58
2022/05/08 13:09:00;;;;;;;4.38;2.55;;;25.10;72.40;;;;;;5092438;28;20207;-58
2022/05/08 13:11:26;;;;;;;3.80;2.78;;;25.00;70.70;;;;;;5091752;28;20695;-58
2022/05/08 13:13:55;;;;;;;3.90;2.78;;;24.90;71.10;;;;;;5092277;28;20293;-57
2022/05/08 13:16:22;;;;;;;4.53;3.58;;;25.10;70.60;;;;;;5092675;28;20593;-59
2022/05/08 13:18:49;;;;;;;3.83;2.60;;;25.40;70.60;;;;;;5092181;28;20219;-58
2022/05/08 13:21:16;;;;;;;3.08;2.78;;;25.50;69.00;;;;;;5092258;28;20223;-59